createdAt,value
2017-09-03T00:01:07.385Z,8.63
2017-09-03T00:03:34.835Z,9.40
2017-09-03T00:06:02.280Z,8.63
2017-09-03T00:08:30.494Z,9.97
2017-09-03T00:10:57.950Z,10.13
2017-09-03T00:13:25.390Z,7.83
2017-09-03T00:15:52.850Z,11.70
2017-09-03T00:18:20.297Z,11.10
2017-09-03T00:20:47.762Z,11.23
2017-09-03T00:23:15.212Z,11.27
2017-09-03T00:25:42.672Z,11.20
2017-09-03T00:28:10.113Z,10.10
2017-09-03T00:30:37.569Z,14.83
2017-09-03T00:33:05.014Z,13.97
2017-09-03T00:35:32.468Z,11.80
2017-09-03T00:37:59.937Z,10.73
2017-09-03T00:40:27.364Z,12.90
2017-09-03T00:42:54.821Z,13.40
2017-09-03T00:45:22.277Z,11.17
2017-09-03T00:47:49.729Z,10.77
2017-09-03T00:50:17.177Z,18.17
2017-09-03T00:52:44.641Z,13.33
2017-09-03T00:55:12.089Z,15.93
2017-09-03T00:57:39.559Z,19.37
2017-09-03T01:00:07.018Z,16.23
2017-09-03T01:02:34.477Z,15.97
2017-09-03T01:05:01.930Z,14.73
2017-09-03T01:07:29.389Z,16.57
2017-09-03T01:09:56.838Z,16.73
2017-09-03T01:12:24.297Z,13.67
2017-09-03T01:14:51.751Z,13.30
2017-09-03T01:17:19.205Z,13.07
2017-09-03T01:19:46.649Z,21.57
2017-09-03T01:22:14.110Z,20.47
2017-09-03T01:24:41.555Z,23.00
2017-09-03T01:27:09.010Z,25.27
2017-09-03T01:29:36.458Z,22.10
2017-09-03T01:32:03.909Z,24.73
2017-09-03T01:34:31.356Z,25.73
2017-09-03T01:36:58.800Z,16.03
2017-09-03T01:39:26.266Z,20.10
2017-09-03T01:41:53.709Z,18.30
2017-09-03T01:44:21.156Z,20.17
2017-09-03T01:46:48.600Z,29.90
2017-09-03T01:49:16.052Z,31.17
2017-09-03T01:51:43.498Z,34.10
2017-09-03T01:54:10.953Z,28.27
2017-09-03T01:56:38.393Z,25.27
2017-09-03T01:59:05.852Z,21.30
2017-09-03T02:01:33.297Z,23.60
2017-09-03T02:04:00.754Z,22.77
2017-09-03T02:06:28.201Z,23.43
2017-09-03T02:08:55.653Z,19.27
2017-09-03T02:11:23.106Z,20.00
2017-09-03T02:13:50.557Z,20.97
2017-09-03T02:16:18.009Z,25.47
2017-09-03T02:18:46.223Z,24.40
2017-09-03T02:21:13.670Z,19.40
2017-09-03T02:23:41.117Z,21.50
2017-09-03T02:26:08.570Z,17.97
2017-09-03T02:28:36.031Z,21.30
2017-09-03T02:31:03.465Z,34.40
2017-09-03T02:33:30.914Z,32.03
2017-09-03T02:35:58.362Z,29.07
2017-09-03T02:38:25.819Z,33.93
2017-09-03T02:40:53.261Z,33.27
2017-09-03T02:43:20.705Z,32.97
2017-09-03T02:45:48.157Z,32.23
2017-09-03T02:48:15.611Z,22.57
2017-09-03T02:50:43.066Z,21.83
2017-09-03T02:53:10.539Z,26.57
2017-09-03T02:55:37.974Z,17.83
2017-09-03T02:58:05.415Z,30.33
2017-09-03T03:00:32.874Z,17.80
2017-09-03T03:03:00.315Z,23.20
2017-09-03T03:05:27.758Z,25.93
2017-09-03T03:07:55.214Z,31.43
2017-09-03T03:10:23.421Z,30.10
2017-09-03T03:12:50.865Z,29.50
2017-09-03T03:15:18.327Z,38.20
2017-09-03T03:17:45.774Z,31.90
2017-09-03T03:20:13.229Z,37.73
2017-09-03T03:22:40.670Z,31.23
2017-09-03T03:25:08.126Z,38.20
2017-09-03T03:27:35.578Z,42.67
2017-09-03T03:30:03.040Z,39.13
2017-09-03T03:32:30.488Z,35.93
2017-09-03T03:34:57.939Z,29.80
2017-09-03T03:37:25.384Z,28.50
2017-09-03T03:39:59.699Z,31.10
2017-09-03T03:42:27.145Z,40.87
2017-09-03T03:44:54.590Z,41.83
2017-09-03T03:47:22.042Z,51.53
2017-09-03T03:49:49.499Z,37.47
2017-09-03T03:52:16.958Z,48.97
2017-09-03T03:54:44.402Z,52.47
2017-09-03T03:57:11.852Z,63.80
2017-09-03T03:59:39.296Z,60.97
2017-09-03T04:02:06.754Z,68.87
2017-09-03T04:04:34.192Z,57.23
2017-09-03T04:07:02.430Z,47.67
2017-09-03T04:09:29.886Z,51.87
2017-09-03T04:11:57.342Z,47.07
2017-09-03T04:14:24.799Z,48.50
2017-09-03T04:16:52.249Z,52.40
2017-09-03T04:19:19.694Z,47.27
2017-09-03T04:21:47.141Z,40.13
2017-09-03T04:24:14.591Z,40.00
2017-09-03T04:26:42.043Z,38.90
2017-09-03T04:29:09.490Z,45.63
2017-09-03T04:31:36.936Z,57.83
2017-09-03T04:34:04.394Z,56.05
2017-09-03T04:36:31.845Z,59.37
2017-09-03T04:38:59.294Z,59.97
2017-09-03T04:41:26.765Z,49.37
2017-09-03T04:43:54.227Z,59.63
2017-09-03T04:46:21.670Z,62.90
2017-09-03T04:48:49.118Z,78.87
2017-09-03T04:51:16.560Z,52.50
2017-09-03T04:53:44.028Z,47.40
2017-09-03T04:56:11.461Z,41.47
2017-09-03T04:58:38.908Z,42.30
2017-09-03T05:01:06.350Z,33.23
2017-09-03T05:03:33.797Z,30.67
2017-09-03T05:06:01.245Z,23.53
2017-09-03T05:08:28.701Z,32.27
2017-09-03T05:10:56.146Z,44.43
2017-09-03T05:13:23.593Z,30.57
2017-09-03T05:15:51.044Z,27.07
2017-09-03T05:18:18.496Z,28.67
2017-09-03T05:20:45.953Z,20.80
2017-09-03T05:23:13.410Z,17.60
2017-09-03T05:25:40.871Z,13.80
2017-09-03T05:28:08.326Z,19.23
2017-09-03T05:30:35.778Z,18.33
2017-09-03T05:33:03.235Z,18.23
2017-09-03T05:35:30.682Z,18.50
2017-09-03T05:37:58.174Z,17.90
2017-09-03T05:40:25.618Z,15.20
2017-09-03T05:42:53.089Z,17.67
2017-09-03T05:45:20.541Z,13.67
2017-09-03T05:47:47.996Z,11.53
2017-09-03T05:50:15.453Z,15.40
2017-09-03T05:52:42.893Z,12.43
2017-09-03T05:55:10.352Z,13.00
2017-09-03T05:57:37.806Z,12.60
2017-09-03T06:00:05.261Z,11.40
2017-09-03T06:02:32.706Z,18.03
2017-09-03T06:05:00.165Z,12.93
2017-09-03T06:07:27.618Z,12.67
2017-09-03T06:09:55.110Z,12.93
2017-09-03T06:12:22.566Z,11.10
2017-09-03T06:14:50.023Z,14.97
2017-09-03T06:17:17.466Z,10.27
2017-09-03T06:19:44.936Z,10.27
2017-09-03T06:22:12.373Z,8.70
2017-09-03T06:24:39.850Z,9.20
2017-09-03T06:27:07.292Z,11.80
2017-09-03T06:29:34.769Z,11.57
2017-09-03T06:32:02.213Z,9.33
2017-09-03T06:34:30.428Z,7.13
2017-09-03T06:36:57.953Z,7.80
2017-09-03T06:39:25.410Z,8.10
2017-09-03T06:41:52.874Z,12.00
2017-09-03T06:44:20.317Z,7.57
2017-09-03T06:46:47.756Z,7.53
2017-09-03T06:49:15.236Z,8.40
2017-09-03T06:51:42.685Z,8.30
2017-09-03T06:54:10.133Z,8.47
2017-09-03T06:56:37.584Z,8.30
2017-09-03T06:59:05.029Z,9.03
2017-09-03T07:01:32.478Z,8.77
2017-09-03T07:03:59.974Z,9.20
2017-09-03T07:06:27.430Z,9.60
2017-09-03T07:08:54.871Z,8.23
2017-09-03T07:11:22.322Z,6.70
2017-09-03T07:13:49.762Z,7.43
2017-09-03T07:16:17.215Z,6.70
2017-09-03T07:18:44.654Z,6.47
2017-09-03T07:21:12.101Z,6.50
2017-09-03T07:23:39.626Z,8.37
2017-09-03T07:26:07.073Z,6.60
2017-09-03T07:28:34.537Z,7.20
2017-09-03T07:31:01.997Z,8.90
2017-09-03T07:33:29.451Z,8.33
2017-09-03T07:35:56.896Z,8.70
2017-09-03T07:38:24.368Z,8.27
2017-09-03T07:40:51.930Z,10.30
2017-09-03T07:43:19.368Z,11.47
2017-09-03T07:45:46.847Z,12.03
2017-09-03T07:48:14.398Z,9.73
2017-09-03T07:50:41.842Z,10.60
2017-09-03T07:53:09.314Z,12.23
2017-09-03T07:55:36.759Z,14.30
2017-09-03T07:58:04.219Z,9.37
2017-09-03T08:00:31.682Z,10.07
2017-09-03T08:02:59.241Z,12.53
2017-09-03T08:05:26.692Z,7.67
2017-09-03T08:07:54.150Z,8.13
2017-09-03T08:10:21.605Z,7.10
2017-09-03T08:12:49.056Z,8.57
2017-09-03T08:15:16.550Z,8.60
2017-09-03T08:17:44.002Z,7.53
2017-09-03T08:20:11.542Z,8.17
2017-09-03T08:22:39.006Z,12.43
2017-09-03T08:25:06.453Z,8.27
2017-09-03T08:27:34.018Z,7.80
2017-09-03T08:30:01.483Z,7.77
2017-09-03T08:32:29.032Z,7.90
2017-09-03T08:34:56.481Z,9.50
2017-09-03T08:37:23.938Z,9.90
2017-09-03T08:39:51.389Z,8.27
2017-09-03T08:42:18.855Z,10.57
2017-09-03T08:44:46.303Z,11.90
2017-09-03T08:47:13.766Z,8.57
2017-09-03T08:49:41.213Z,11.50
2017-09-03T08:52:08.670Z,11.87
2017-09-03T08:54:36.128Z,7.87
2017-09-03T08:57:03.569Z,8.00
2017-09-03T08:59:31.029Z,7.73
2017-09-03T09:01:58.486Z,8.77
2017-09-03T09:04:25.939Z,8.97
2017-09-03T09:06:53.671Z,7.40
2017-09-03T09:09:21.890Z,6.40
2017-09-03T09:11:49.359Z,8.73
2017-09-03T09:14:16.807Z,5.50
2017-09-03T09:16:44.262Z,6.93
2017-09-03T09:19:11.717Z,12.53
2017-09-03T09:21:39.166Z,11.83
2017-09-03T09:24:06.618Z,8.73
2017-09-03T09:26:34.066Z,12.20
2017-09-03T09:29:01.528Z,5.97
2017-09-03T09:31:28.965Z,8.90
2017-09-03T09:33:56.424Z,10.20
2017-09-03T09:36:23.856Z,6.37
2017-09-03T09:38:51.305Z,7.90
2017-09-03T09:41:18.745Z,8.40
2017-09-03T09:43:46.198Z,5.30
2017-09-03T09:46:13.649Z,5.10
2017-09-03T09:48:41.127Z,5.80
2017-09-03T09:51:08.571Z,7.83
2017-09-03T09:53:36.022Z,5.70
2017-09-03T09:56:03.481Z,5.43
2017-09-03T09:58:30.933Z,6.30
2017-09-03T10:00:58.491Z,5.83
2017-09-03T10:03:25.935Z,7.53
2017-09-03T10:05:53.390Z,12.77
2017-09-03T10:08:20.847Z,7.67
2017-09-03T10:10:48.307Z,4.70
2017-09-03T10:13:15.746Z,5.37
2017-09-03T10:15:43.194Z,7.10
2017-09-03T10:18:12.104Z,4.40
2017-09-03T10:20:39.553Z,5.37
2017-09-03T10:23:07.032Z,4.17
2017-09-03T10:25:34.478Z,4.67
2017-09-03T10:28:01.933Z,4.93
2017-09-03T10:30:29.382Z,4.10
2017-09-03T10:32:56.835Z,4.93
2017-09-03T10:35:24.318Z,3.57
2017-09-03T10:37:51.768Z,6.20
2017-09-03T10:40:19.224Z,4.80
2017-09-03T10:42:46.673Z,4.07
2017-09-03T10:45:14.121Z,3.27
2017-09-03T10:47:41.566Z,5.73
2017-09-03T10:50:09.027Z,6.23
2017-09-03T10:52:36.462Z,4.57
2017-09-03T10:55:03.903Z,6.60
2017-09-03T10:57:31.425Z,6.27
2017-09-03T10:59:58.873Z,5.30
2017-09-03T11:02:26.320Z,8.97
2017-09-03T11:04:53.770Z,11.77
2017-09-03T11:07:21.233Z,7.30
2017-09-03T11:09:48.679Z,5.50
2017-09-03T11:12:16.130Z,3.87
2017-09-03T11:14:43.622Z,4.30
2017-09-03T11:17:11.188Z,4.00
2017-09-03T11:19:38.631Z,4.30
2017-09-03T11:22:06.075Z,3.10
2017-09-03T11:24:33.518Z,5.10
2017-09-03T11:27:00.960Z,2.43
2017-09-03T11:29:28.404Z,3.07
2017-09-03T11:31:55.850Z,3.57
2017-09-03T11:34:24.068Z,2.50
2017-09-03T11:36:51.546Z,2.90
2017-09-03T11:39:18.987Z,2.97
2017-09-03T11:41:46.429Z,2.73
2017-09-03T11:44:13.875Z,3.77
2017-09-03T11:46:41.378Z,3.10
2017-09-03T11:49:08.821Z,2.93
2017-09-03T11:51:36.277Z,3.03
2017-09-03T11:54:03.727Z,3.20
2017-09-03T11:56:31.196Z,3.60
2017-09-03T11:58:58.646Z,4.00
2017-09-03T12:01:26.093Z,4.37
2017-09-03T12:03:53.543Z,2.77
2017-09-03T12:06:20.977Z,3.30
2017-09-03T12:08:48.427Z,5.00
2017-09-03T12:11:15.865Z,5.00
2017-09-03T12:13:43.318Z,2.67
2017-09-03T12:16:10.758Z,4.53
2017-09-03T12:18:38.207Z,3.63
2017-09-03T12:21:05.649Z,3.60
2017-09-03T12:23:33.102Z,3.97
2017-09-03T12:26:00.538Z,3.67
2017-09-03T12:28:27.986Z,3.03
2017-09-03T12:30:55.421Z,3.33
2017-09-03T12:33:22.873Z,3.93
2017-09-03T12:35:50.314Z,4.23
2017-09-03T12:38:17.758Z,3.20
2017-09-03T12:40:45.193Z,3.83
2017-09-03T12:43:12.662Z,4.17
2017-09-03T12:45:40.101Z,4.97
2017-09-03T12:48:07.558Z,2.60
2017-09-03T12:50:35.023Z,5.67
2017-09-03T12:53:02.482Z,3.80
2017-09-03T12:55:29.921Z,2.83
2017-09-03T12:57:57.417Z,4.00
2017-09-03T13:00:24.881Z,3.30
2017-09-03T13:02:52.333Z,4.37
2017-09-03T13:05:19.780Z,3.10
2017-09-03T13:07:47.221Z,2.60
2017-09-03T13:10:14.678Z,3.10
2017-09-03T13:12:42.130Z,3.57
2017-09-03T13:15:09.575Z,2.60
2017-09-03T13:17:37.013Z,2.73
2017-09-03T13:20:04.462Z,2.87
2017-09-03T13:22:31.910Z,2.57
2017-09-03T13:24:59.353Z,2.70
2017-09-03T13:27:26.798Z,2.57
2017-09-03T13:29:54.253Z,2.60
2017-09-03T13:32:21.684Z,2.90
2017-09-03T13:34:49.129Z,2.60
2017-09-03T13:37:16.578Z,2.83
2017-09-03T13:39:44.029Z,2.53
2017-09-03T13:42:11.465Z,2.53
2017-09-03T13:44:38.915Z,4.20
2017-09-03T13:47:06.373Z,2.67
2017-09-03T13:49:33.857Z,2.30
2017-09-03T13:52:01.305Z,2.50
2017-09-03T13:54:28.761Z,2.97
2017-09-03T13:56:56.217Z,6.00
2017-09-03T13:59:23.658Z,3.10
2017-09-03T14:01:51.106Z,5.93
2017-09-03T14:04:18.550Z,3.07
2017-09-03T14:06:45.997Z,3.03
2017-09-03T14:09:13.461Z,2.77
2017-09-03T14:11:40.919Z,6.10
2017-09-03T14:14:08.357Z,5.33
2017-09-03T14:16:35.828Z,2.63
2017-09-03T14:19:03.278Z,4.10
2017-09-03T14:21:30.724Z,2.47
2017-09-03T14:23:58.167Z,2.50
2017-09-03T14:26:25.614Z,3.40
2017-09-03T14:28:53.054Z,2.90
2017-09-03T14:31:21.265Z,2.60
2017-09-03T14:33:48.742Z,2.80
2017-09-03T14:36:16.188Z,1.90
2017-09-03T14:38:43.638Z,3.13
2017-09-03T14:41:11.089Z,2.13
2017-09-03T14:43:38.579Z,2.10
2017-09-03T14:46:06.026Z,2.30
2017-09-03T14:48:33.461Z,3.03
2017-09-03T14:51:00.920Z,5.73
2017-09-03T14:53:28.389Z,2.57
2017-09-03T14:55:55.841Z,3.17
2017-09-03T14:58:23.301Z,2.50
2017-09-03T15:00:50.750Z,2.60
2017-09-03T15:03:18.223Z,2.73
2017-09-03T15:05:45.657Z,2.63
2017-09-03T15:08:13.104Z,3.20
2017-09-03T15:10:40.545Z,2.87
2017-09-03T15:13:08.002Z,2.17
2017-09-03T15:15:35.437Z,4.63
2017-09-03T15:18:02.895Z,4.00
2017-09-03T15:20:30.338Z,2.40
2017-09-03T15:22:57.799Z,4.60
2017-09-03T15:25:25.245Z,2.60
2017-09-03T15:27:52.699Z,2.10
2017-09-03T15:30:20.137Z,3.00
2017-09-03T15:32:47.586Z,3.20
2017-09-03T15:35:15.029Z,2.40
2017-09-03T15:37:42.509Z,1.80
2017-09-03T15:40:10.068Z,2.10
2017-09-03T15:42:37.638Z,2.90
2017-09-03T15:45:05.074Z,2.57
2017-09-03T15:47:32.554Z,3.13
2017-09-03T15:49:59.993Z,4.13
2017-09-03T15:52:27.441Z,4.00
2017-09-03T15:54:54.886Z,3.33
2017-09-03T15:57:22.322Z,4.30
2017-09-03T15:59:49.778Z,2.87
2017-09-03T16:02:17.224Z,2.77
2017-09-03T16:04:44.670Z,5.40
2017-09-03T16:07:12.873Z,5.13
2017-09-03T16:09:40.325Z,7.00
2017-09-03T16:12:07.766Z,2.23
2017-09-03T16:14:35.221Z,2.97
2017-09-03T16:17:02.664Z,11.70
2017-09-03T16:19:30.117Z,3.23
2017-09-03T16:21:57.562Z,2.50
2017-09-03T16:24:25.006Z,3.97
2017-09-03T16:26:52.443Z,3.60
2017-09-03T16:29:19.903Z,2.40
2017-09-03T16:31:47.342Z,2.70
2017-09-03T16:34:14.785Z,3.17
2017-09-03T16:36:42.225Z,2.90
2017-09-03T16:39:09.669Z,4.30
2017-09-03T16:41:37.113Z,3.40
2017-09-03T16:44:04.568Z,2.37
2017-09-03T16:46:32.009Z,2.57
2017-09-03T16:48:59.458Z,3.13
2017-09-03T16:51:27.804Z,4.27
2017-09-03T16:53:55.255Z,5.40
2017-09-03T16:56:22.691Z,3.03
2017-09-03T16:58:50.128Z,2.97
2017-09-03T17:01:17.568Z,2.43
2017-09-03T17:03:45.037Z,2.43
2017-09-03T17:06:12.470Z,2.80
2017-09-03T17:08:39.900Z,5.00
2017-09-03T17:11:07.354Z,3.03
2017-09-03T17:13:34.797Z,3.27
2017-09-03T17:16:02.254Z,2.70
2017-09-03T17:18:30.073Z,4.20
2017-09-03T17:21:06.354Z,3.00
2017-09-03T17:23:33.795Z,2.80
2017-09-03T17:26:01.254Z,2.43
2017-09-03T17:28:28.689Z,3.07
2017-09-03T17:30:58.595Z,3.50
2017-09-03T17:33:26.035Z,5.97
2017-09-03T17:35:53.480Z,5.13
2017-09-03T17:43:57.377Z,2.60
2017-09-03T17:46:26.762Z,3.67
2017-09-03T17:48:54.200Z,5.07
2017-09-03T17:51:21.658Z,4.73
2017-09-03T17:53:49.107Z,3.17
2017-09-03T17:56:16.643Z,4.20
2017-09-03T17:58:44.887Z,3.30
2017-09-03T18:01:12.326Z,4.67
2017-09-03T18:03:39.832Z,3.77
2017-09-03T18:06:07.281Z,3.47
2017-09-03T18:08:34.743Z,3.37
2017-09-03T18:11:02.963Z,3.80
2017-09-03T18:13:30.414Z,3.17
2017-09-03T18:15:57.876Z,6.40
2017-09-03T18:18:25.335Z,3.20
2017-09-03T18:20:52.776Z,4.80
2017-09-03T18:23:20.243Z,3.53
2017-09-03T18:25:47.686Z,4.10
2017-09-03T18:30:59.157Z,5.17
2017-09-03T18:33:26.614Z,3.70
2017-09-03T18:35:58.679Z,3.10
2017-09-03T18:41:28.321Z,3.97
2017-09-03T18:43:59.223Z,5.80
2017-09-03T18:46:27.157Z,3.87
2017-09-03T18:48:54.610Z,3.73
2017-09-03T18:51:26.592Z,4.03
2017-09-03T18:53:57.541Z,6.40
2017-09-03T18:56:29.435Z,4.03
2017-09-03T18:59:08.461Z,4.20
2017-09-03T19:01:36.768Z,4.93
2017-09-03T19:04:04.347Z,4.63
2017-09-03T19:06:33.735Z,4.97
2017-09-03T19:09:01.281Z,4.00
2017-09-03T19:11:28.900Z,4.40
2017-09-03T19:13:56.385Z,4.40
2017-09-03T19:16:23.830Z,4.90
2017-09-03T19:18:52.041Z,4.13
2017-09-03T19:21:19.586Z,5.40
2017-09-03T19:23:47.038Z,6.00
2017-09-03T19:26:14.492Z,4.97
2017-09-03T19:28:41.937Z,4.47
2017-09-03T19:31:09.417Z,5.40
2017-09-03T19:33:36.868Z,10.60
2017-09-03T19:38:45.834Z,5.00
2017-09-03T19:41:13.328Z,4.80
2017-09-03T19:43:40.778Z,6.00
2017-09-03T19:46:08.254Z,3.90
2017-09-03T19:48:35.730Z,3.93
2017-09-03T19:51:03.262Z,5.83
2017-09-03T19:53:31.509Z,4.87
2017-09-03T19:55:58.972Z,4.43
2017-09-03T19:58:26.413Z,4.00
2017-09-03T20:00:53.876Z,5.37
2017-09-03T20:03:21.357Z,4.30
2017-09-03T20:05:48.837Z,4.87
2017-09-03T20:08:16.311Z,4.80
2017-09-03T20:10:43.787Z,5.27
2017-09-03T20:13:11.315Z,7.23
2017-09-03T20:15:38.774Z,4.40
2017-09-03T20:18:06.253Z,5.87
2017-09-03T20:20:33.702Z,4.60
2017-09-03T20:23:01.174Z,8.80
2017-09-03T20:25:28.640Z,4.13
2017-09-03T20:27:56.204Z,4.17
2017-09-03T20:30:23.694Z,4.73
2017-09-03T20:32:51.198Z,4.93
2017-09-03T20:35:18.673Z,4.73
2017-09-03T20:37:46.222Z,4.27
2017-09-03T20:40:13.710Z,5.27
2017-09-03T20:42:41.203Z,5.60
2017-09-03T20:45:08.944Z,5.30
2017-09-03T20:47:36.491Z,6.37
2017-09-03T20:50:04.015Z,3.43
2017-09-03T20:52:31.563Z,4.17
2017-09-03T20:54:59.014Z,6.37
2017-09-03T20:57:26.520Z,5.37
2017-09-03T20:59:54.008Z,4.47
2017-09-03T21:02:21.477Z,5.40
2017-09-03T21:04:48.948Z,4.90
2017-09-03T21:07:16.464Z,5.20
2017-09-03T21:09:43.999Z,6.20
2017-09-03T21:12:11.453Z,5.53
2017-09-03T21:14:38.921Z,5.40
2017-09-03T21:17:06.375Z,6.00
2017-09-03T21:19:33.872Z,5.30
2017-09-03T21:22:01.366Z,5.70
2017-09-03T21:24:28.878Z,4.50
2017-09-03T21:26:56.365Z,5.27
2017-09-03T21:29:23.840Z,6.70
2017-09-03T21:31:51.316Z,8.20
2017-09-03T21:34:18.821Z,6.30
2017-09-03T21:36:47.043Z,5.63
2017-09-03T21:39:14.514Z,7.93
2017-09-03T21:41:41.986Z,8.10
2017-09-03T21:44:09.437Z,7.00
2017-09-03T21:46:36.891Z,8.33
2017-09-03T21:49:04.346Z,6.50
2017-09-03T21:51:31.785Z,7.77
2017-09-03T21:53:59.243Z,7.57
2017-09-03T21:56:26.695Z,7.33
2017-09-03T21:58:54.154Z,7.90
2017-09-03T22:01:21.608Z,9.33
2017-09-03T22:03:49.054Z,6.87
2017-09-03T22:06:16.494Z,7.70
2017-09-03T22:08:43.946Z,7.63
2017-09-03T22:11:11.390Z,7.80
2017-09-03T22:13:38.842Z,9.63
2017-09-03T22:16:07.052Z,12.23
2017-09-03T22:18:34.508Z,9.60
2017-09-03T22:21:01.945Z,9.37
2017-09-03T22:23:29.391Z,8.70
2017-09-03T22:25:57.609Z,8.70
2017-09-03T22:28:25.056Z,9.10
2017-09-03T22:30:52.503Z,8.80
2017-09-03T22:33:19.961Z,10.77
2017-09-03T22:35:47.423Z,9.67
2017-09-03T22:38:14.860Z,11.97
2017-09-03T22:40:42.312Z,12.87
2017-09-03T22:43:09.769Z,17.40
2017-09-03T22:45:37.235Z,11.57
2017-09-03T22:48:04.686Z,11.20
2017-09-03T22:50:32.136Z,10.73
2017-09-03T22:52:59.589Z,11.93
2017-09-03T22:55:27.051Z,11.30
2017-09-03T22:57:54.501Z,11.23
2017-09-03T23:00:21.960Z,17.90
2017-09-03T23:02:49.409Z,20.10
2017-09-03T23:05:16.881Z,28.13
2017-09-03T23:07:44.318Z,21.40
2017-09-03T23:10:11.780Z,23.00
2017-09-03T23:12:39.232Z,24.40
2017-09-03T23:15:06.689Z,24.57
2017-09-03T23:17:34.140Z,26.70
2017-09-03T23:20:01.594Z,21.33
2017-09-03T23:22:34.789Z,20.50
2017-09-03T23:25:03.010Z,20.20
2017-09-03T23:27:30.469Z,24.70
2017-09-03T23:29:57.922Z,31.17
2017-09-03T23:32:25.387Z,21.90
2017-09-03T23:34:52.833Z,20.40
2017-09-03T23:37:20.301Z,25.87
2017-09-03T23:39:47.754Z,23.87
2017-09-03T23:42:15.215Z,25.97
2017-09-03T23:44:42.666Z,24.90
2017-09-03T23:47:10.113Z,21.30
2017-09-03T23:49:37.563Z,26.97
2017-09-03T23:52:05.026Z,40.83
2017-09-03T23:54:32.475Z,32.20
2017-09-03T23:56:59.933Z,25.80
2017-09-03T23:59:27.377Z,26.97
